Time;durP1;ratioP1;P1;durP2;ratioP2;P2;SDS_P1;SDS_P2;PMS_P1;PMS_P2;Temp;Humidity;BMP_temperature;BMP_pressure;BME280_temperature;BME280_humidity;BME280_pressure;Samples;Min_cycle;Max_cycle;Signal;HPM_P1;HPM_P2
2021/01/27 00:00:25;;;;;;;3.63;2.45;;;6.20;80.50;;;;;;5115382;28;20059;-64
2021/01/27 00:02:51;;;;;;;5.25;3.45;;;6.20;80.60;;;;;;5115919;28;20509;-65
2021/01/27 00:05:37;;;;;;;7.18;3.38;;;6.20;80.50;;;;;;5116163;28;20028;-65
2021/01/27 00:08:03;;;;;;;11.90;3.63;;;6.10;80.60;;;;;;5114264;28;20497;-64
2021/01/27 00:10:30;;;;;;;8.50;4.38;;;6.10;80.50;;;;;;5115696;28;20462;-64
2021/01/27 00:12:56;;;;;;;6.03;4.00;;;6.10;80.60;;;;;;5116110;28;20033;-64
2021/01/27 00:15:33;;;;;;;5.82;3.00;;;6.10;80.60;;;;;;5115119;28;20024;-65
2021/01/27 00:17:59;;;;;;;8.05;3.00;;;6.10;80.70;;;;;;5116039;28;20035;-64
2021/01/27 00:20:26;;;;;;;12.02;6.45;;;6.10;80.90;;;;;;5115710;28;20081;-64
2021/01/27 00:22:53;;;;;;;15.48;4.05;;;6.00;81.00;;;;;;5115546;28;20024;-64
2021/01/27 00:25:21;;;;;;;3.40;2.17;;;6.10;81.70;;;;;;5115488;28;20080;-64
2021/01/27 00:27:47;;;;;;;5.80;3.90;;;6.10;81.10;;;;;;5115296;28;20651;-64
2021/01/27 00:30:25;;;;;;;10.20;2.80;;;6.10;81.10;;;;;;5115132;28;20126;-64
2021/01/27 00:32:51;;;;;;;2.45;1.98;;;6.10;81.10;;;;;;5115540;28;20057;-64
2021/01/27 00:35:21;;;;;;;9.18;4.93;;;6.10;81.00;;;;;;5114784;28;20436;-65
2021/01/27 00:37:47;;;;;;;7.22;3.42;;;6.10;81.00;;;;;;5115238;28;20019;-65
2021/01/27 00:40:13;;;;;;;3.20;1.80;;;6.10;81.00;;;;;;5115757;28;20505;-64
2021/01/27 00:42:39;;;;;;;2.78;2.03;;;6.10;81.00;;;;;;5114830;28;20042;-65
2021/01/27 00:45:06;;;;;;;7.63;3.97;;;6.10;81.00;;;;;;5096814;28;20032;-64
2021/01/27 00:47:31;;;;;;;6.15;3.92;;;6.10;81.00;;;;;;5115161;28;20023;-64
2021/01/27 00:49:57;;;;;;;5.32;3.15;;;6.10;80.90;;;;;;5099925;28;20398;-64
2021/01/27 00:52:26;;;;;;;11.13;6.20;;;6.10;80.90;;;;;;5096459;28;20020;-64
2021/01/27 00:54:52;;;;;;;8.88;4.00;;;6.10;80.90;;;;;;5115023;28;20019;-64
2021/01/27 00:57:18;;;;;;;6.57;3.95;;;6.10;80.90;;;;;;5096513;28;20080;-64
2021/01/27 00:59:44;;;;;;;15.00;8.82;;;6.00;81.00;;;;;;5096439;28;20030;-64
2021/01/27 01:02:10;;;;;;;2.30;1.63;;;6.10;81.00;;;;;;5096628;28;20031;-64
2021/01/27 01:04:44;;;;;;;5.13;3.13;;;6.10;81.10;;;;;;5113966;28;20024;-64
2021/01/27 01:07:09;;;;;;;5.00;3.22;;;6.10;81.00;;;;;;5114761;28;20039;-64
2021/01/27 01:09:35;;;;;;;6.28;4.05;;;6.10;81.00;;;;;;5114770;28;20042;-64
2021/01/27 01:12:01;;;;;;;4.97;2.90;;;6.10;80.80;;;;;;5113899;28;20027;-64
2021/01/27 01:14:27;;;;;;;6.68;4.93;;;6.10;80.90;;;;;;5114842;28;20023;-64
2021/01/27 01:16:53;;;;;;;3.50;2.28;;;6.10;80.80;;;;;;5113896;28;20083;-64
2021/01/27 01:19:18;;;;;;;5.55;3.60;;;6.10;80.80;;;;;;5114214;28;20028;-64
2021/01/27 01:21:44;;;;;;;4.00;2.20;;;6.10;80.90;;;;;;5114332;28;20028;-64
2021/01/27 01:24:10;;;;;;;4.15;2.58;;;6.10;81.00;;;;;;5114294;28;20031;-64
2021/01/27 01:26:35;;;;;;;4.13;3.28;;;6.10;81.00;;;;;;5114356;28;20485;-64
2021/01/27 01:29:02;;;;;;;7.85;5.15;;;6.10;81.00;;;;;;5114018;28;20074;-63
2021/01/27 01:31:28;;;;;;;13.20;5.43;;;6.10;81.70;;;;;;5113942;28;20118;-64
2021/01/27 01:33:53;;;;;;;11.65;5.05;;;6.00;81.10;;;;;;5114018;28;20067;-64
2021/01/27 01:36:19;;;;;;;6.97;4.60;;;6.00;81.10;;;;;;5114553;28;20027;-64
2021/01/27 01:38:45;;;;;;;8.82;5.25;;;6.00;81.20;;;;;;5113487;28;20122;-64
2021/01/27 01:41:11;;;;;;;9.35;5.20;;;6.00;81.20;;;;;;5114117;28;20019;-64
2021/01/27 01:43:40;;;;;;;6.10;4.30;;;6.00;81.30;;;;;;5114280;28;20359;-64
2021/01/27 01:46:11;;;;;;;15.55;4.70;;;6.00;81.30;;;;;;5113566;28;20114;-64
2021/01/27 01:48:48;;;;;;;11.65;4.53;;;6.00;81.30;;;;;;5113760;28;20036;-64
2021/01/27 01:51:48;;;;;;;12.73;6.47;;;6.00;81.40;;;;;;5114072;28;20035;-64
2021/01/27 01:54:33;;;;;;;5.80;4.00;;;6.00;81.40;;;;;;5095505;28;20086;-65
2021/01/27 01:57:03;;;;;;;3.75;2.00;;;6.00;81.40;;;;;;5101381;28;20428;-64
2021/01/27 01:59:33;;;;;;;18.45;8.70;;;6.00;81.30;;;;;;5113233;28;20035;-64
2021/01/27 02:02:02;;;;;;;5.57;3.60;;;6.00;81.40;;;;;;5113643;28;20146;-64
2021/01/27 02:04:35;;;;;;;7.68;4.35;;;6.00;81.40;;;;;;5113846;28;20052;-64
2021/01/27 02:07:01;;;;;;;7.50;4.43;;;6.00;81.40;;;;;;5113326;28;20106;-64
2021/01/27 02:09:27;;;;;;;4.35;3.17;;;6.10;81.40;;;;;;5113385;28;20557;-64
2021/01/27 02:12:17;;;;;;;9.70;4.68;;;6.00;81.30;;;;;;5113626;28;20107;-64
2021/01/27 02:15:08;;;;;;;8.70;5.30;;;6.10;81.30;;;;;;5112999;28;20036;-64
2021/01/27 02:17:53;;;;;;;4.20;3.08;;;6.00;81.20;;;;;;5102718;28;20035;-64
2021/01/27 02:21:00;;;;;;;6.78;4.35;;;6.00;81.20;;;;;;5113178;28;20023;-65
2021/01/27 02:23:50;;;;;;;12.43;5.47;;;6.00;81.30;;;;;;5113202;28;20439;-64
2021/01/27 02:26:45;;;;;;;12.30;6.28;;;5.90;81.30;;;;;;5113764;28;20454;-64
2021/01/27 02:29:39;;;;;;;13.57;7.13;;;5.90;81.50;;;;;;5112613;28;20134;-63
2021/01/27 02:32:26;;;;;;;12.60;7.47;;;5.90;81.50;;;;;;5112637;28;20037;-64
2021/01/27 02:35:04;;;;;;;1.60;1.50;;;5.90;81.60;;;;;;5113003;28;20028;-64
2021/01/27 02:37:59;;;;;;;14.20;7.00;;;5.80;81.60;;;;;;5113050;28;20035;-64
2021/01/27 02:40:49;;;;;;;11.70;6.78;;;5.80;81.90;;;;;;5109040;28;20032;-64
2021/01/27 02:43:24;;;;;;;7.80;5.35;;;5.80;81.80;;;;;;5112392;28;20035;-64
2021/01/27 02:46:18;;;;;;;2.67;2.13;;;5.80;81.90;;;;;;5113246;28;20027;-64
2021/01/27 02:48:44;;;;;;;6.50;4.30;;;5.80;82.00;;;;;;5102521;28;20036;-64
2021/01/27 02:51:17;;;;;;;9.02;5.05;;;5.90;82.00;;;;;;5112730;28;20393;-64
2021/01/27 02:53:52;;;;;;;2.60;2.28;;;5.80;81.90;;;;;;5113240;28;20027;-64
2021/01/27 02:56:23;;;;;;;8.32;4.25;;;5.90;82.00;;;;;;5112575;28;20051;-64
2021/01/27 02:59:01;;;;;;;8.70;4.18;;;5.90;81.90;;;;;;5112918;28;20033;-64
2021/01/27 03:01:53;;;;;;;9.77;5.70;;;5.90;81.80;;;;;;5094624;28;20077;-64
2021/01/27 03:04:28;;;;;;;6.70;3.15;;;5.90;81.80;;;;;;5112606;28;20027;-64
2021/01/27 03:06:55;;;;;;;7.05;4.55;;;5.80;81.60;;;;;;5112921;28;20063;-64
2021/01/27 03:09:36;;;;;;;9.30;5.25;;;5.80;81.70;;;;;;5112346;28;20539;-64
2021/01/27 03:12:03;;;;;;;13.13;4.53;;;5.80;81.90;;;;;;5112526;28;20390;-64
2021/01/27 03:14:28;;;;;;;12.20;5.18;;;5.80;81.90;;;;;;5113200;28;20367;-64
2021/01/27 03:17:08;;;;;;;6.93;3.70;;;5.80;81.90;;;;;;5112132;28;20043;-64
2021/01/27 03:20:04;;;;;;;5.43;3.78;;;5.80;82.00;;;;;;5112836;28;20032;-64
2021/01/27 03:22:48;;;;;;;10.60;4.60;;;5.80;81.90;;;;;;5108629;28;20056;-64
2021/01/27 03:25:37;;;;;;;6.45;3.10;;;5.80;81.90;;;;;;5112199;28;20044;-64
2021/01/27 03:28:29;;;;;;;5.85;3.85;;;5.80;81.80;;;;;;5099692;28;20032;-64
2021/01/27 03:30:56;;;;;;;9.95;5.65;;;5.80;81.80;;;;;;5091552;28;20083;-65
2021/01/27 03:33:29;;;;;;;8.25;4.65;;;5.90;81.70;;;;;;5091691;28;20028;-64
2021/01/27 03:36:01;;;;;;;3.10;2.45;;;5.80;81.70;;;;;;5092258;28;20036;-64
2021/01/27 03:38:46;;;;;;;10.30;5.40;;;5.80;81.70;;;;;;5091838;28;20495;-65
2021/01/27 03:41:33;;;;;;;16.00;6.82;;;5.90;81.80;;;;;;5091979;28;20028;-64
2021/01/27 03:44:08;;;;;;;11.35;4.63;;;5.90;81.70;;;;;;5096285;28;20055;-64
2021/01/27 03:46:43;;;;;;;2.60;1.25;;;5.90;81.60;;;;;;5095165;28;20024;-64
2021/01/27 03:49:41;;;;;;;5.90;4.00;;;6.00;81.60;;;;;;5096030;28;20044;-64
2021/01/27 03:52:24;;;;;;;15.90;6.88;;;5.90;81.50;;;;;;5089702;28;20044;-64
2021/01/27 03:55:00;;;;;;;6.55;3.97;;;6.00;81.30;;;;;;5095587;28;20036;-65
2021/01/27 03:57:30;;;;;;;6.82;3.35;;;6.00;81.30;;;;;;5095913;28;20036;-64
2021/01/27 03:59:55;;;;;;;15.23;6.95;;;6.00;81.10;;;;;;5109268;28;20039;-64
2021/01/27 04:02:22;;;;;;;2.80;2.38;;;6.00;81.00;;;;;;5095651;28;20020;-64
2021/01/27 04:04:48;;;;;;;7.53;3.58;;;6.00;81.00;;;;;;5095351;28;20528;-64
2021/01/27 04:07:16;;;;;;;7.25;3.53;;;6.00;81.00;;;;;;5094963;28;20739;-64
2021/01/27 04:09:42;;;;;;;7.75;4.22;;;6.00;81.00;;;;;;5096015;28;20446;-65
2021/01/27 04:12:08;;;;;;;3.47;2.53;;;5.90;80.90;;;;;;5095481;28;20031;-64
2021/01/27 04:14:35;;;;;;;6.68;3.13;;;6.00;81.00;;;;;;5094698;28;20032;-64
2021/01/27 04:17:24;;;;;;;6.32;3.42;;;5.90;81.00;;;;;;5095555;28;20016;-65
2021/01/27 04:19:49;;;;;;;5.25;3.40;;;5.90;81.60;;;;;;5082268;28;20071;-64
2021/01/27 04:22:15;;;;;;;6.60;4.20;;;6.00;81.00;;;;;;5095070;28;20075;-64
2021/01/27 04:24:41;;;;;;;5.35;3.08;;;6.00;80.80;;;;;;5095360;28;20030;-64
2021/01/27 04:27:06;;;;;;;2.95;2.28;;;6.00;80.80;;;;;;5094787;28;20039;-64
2021/01/27 04:29:32;;;;;;;6.50;3.45;;;6.00;80.70;;;;;;5094536;28;20055;-64
2021/01/27 04:31:58;;;;;;;11.15;3.53;;;6.00;80.70;;;;;;5095279;28;20032;-64
2021/01/27 04:34:23;;;;;;;6.38;3.75;;;6.00;80.70;;;;;;5094660;28;20486;-65
2021/01/27 04:36:49;;;;;;;2.05;1.77;;;5.90;80.60;;;;;;5094826;28;20036;-65
2021/01/27 04:39:14;;;;;;;8.13;3.47;;;5.90;80.70;;;;;;5094743;28;20032;-64
2021/01/27 04:41:41;;;;;;;7.25;3.42;;;5.90;80.70;;;;;;5094729;28;20024;-64
2021/01/27 04:44:07;;;;;;;4.85;2.72;;;5.90;80.60;;;;;;5094809;28;20031;-65
2021/01/27 04:46:36;;;;;;;10.07;4.80;;;5.90;80.60;;;;;;5094917;28;20478;-64
2021/01/27 04:49:23;;;;;;;9.48;4.57;;;5.90;80.60;;;;;;5094267;28;20126;-64
2021/01/27 04:52:11;;;;;;;5.32;3.53;;;5.90;80.70;;;;;;5094818;28;20060;-64
2021/01/27 04:55:01;;;;;;;5.10;2.08;;;5.90;80.70;;;;;;5094285;28;20478;-64
2021/01/27 04:57:54;;;;;;;11.82;5.32;;;5.90;80.70;;;;;;5094644;28;20076;-64
2021/01/27 05:00:42;;;;;;;9.52;2.80;;;5.90;80.70;;;;;;5094678;28;20042;-64
2021/01/27 05:03:35;;;;;;;3.50;1.45;;;5.90;80.80;;;;;;5093920;28;20028;-64
2021/01/27 05:06:06;;;;;;;10.40;3.72;;;5.90;80.80;;;;;;5094656;28;20028;-64
2021/01/27 05:08:40;;;;;;;9.30;4.25;;;5.90;80.80;;;;;;5100521;28;20035;-64
2021/01/27 05:11:08;;;;;;;4.78;3.00;;;5.80;80.70;;;;;;5100549;28;20127;-64
2021/01/27 05:13:46;;;;;;;7.18;3.08;;;5.90;80.70;;;;;;5108356;28;20024;-64
2021/01/27 05:16:23;;;;;;;6.15;3.53;;;5.80;80.70;;;;;;5094025;28;20028;-64
2021/01/27 05:18:51;;;;;;;2.75;2.05;;;5.80;80.70;;;;;;5094136;28;20032;-64
2021/01/27 05:21:38;;;;;;;6.47;3.38;;;5.90;80.80;;;;;;5094415;28;20063;-64
2021/01/27 05:24:05;;;;;;;10.25;4.97;;;5.90;80.80;;;;;;5093787;28;20111;-64
2021/01/27 05:26:37;;;;;;;3.70;2.17;;;5.90;80.70;;;;;;5094086;28;20024;-64
2021/01/27 05:29:17;;;;;;;9.00;4.82;;;6.00;80.80;;;;;;5094071;28;20074;-64
2021/01/27 05:32:11;;;;;;;3.08;1.98;;;5.90;80.50;;;;;;5092996;28;20093;-64
2021/01/27 05:34:39;;;;;;;4.97;3.40;;;6.00;80.60;;;;;;5093997;28;20039;-66
2021/01/27 05:37:27;;;;;;;10.65;5.00;;;6.00;80.40;;;;;;5093396;28;20387;-65
2021/01/27 05:40:20;;;;;;;9.35;4.55;;;6.00;80.40;;;;;;5085316;28;20027;-65
2021/01/27 05:42:47;;;;;;;8.88;2.35;;;5.90;80.40;;;;;;5093773;28;20031;-64
2021/01/27 05:45:36;;;;;;;10.25;4.15;;;6.00;80.50;;;;;;5093197;28;20042;-64
2021/01/27 05:48:24;;;;;;;11.80;4.65;;;6.00;80.50;;;;;;5093424;28;20486;-64
2021/01/27 05:50:52;;;;;;;8.02;4.50;;;6.00;80.50;;;;;;5107611;28;20024;-64
2021/01/27 05:53:19;;;;;;;6.00;3.40;;;6.00;80.40;;;;;;5093104;28;20051;-64
2021/01/27 05:55:58;;;;;;;5.93;3.70;;;6.00;80.30;;;;;;5093744;28;20028;-64
2021/01/27 05:58:25;;;;;;;8.45;3.80;;;6.10;80.40;;;;;;5092986;28;20020;-64
2021/01/27 06:00:50;;;;;;;14.95;5.10;;;6.10;80.20;;;;;;5093274;28;20032;-64
2021/01/27 06:03:24;;;;;;;8.57;2.22;;;6.10;80.10;;;;;;5093189;28;20386;-64
2021/01/27 06:05:51;;;;;;;8.15;4.03;;;6.10;80.30;;;;;;5092288;28;20036;-66
2021/01/27 06:08:22;;;;;;;10.85;6.15;;;6.10;80.00;;;;;;5093619;28;20028;-64
2021/01/27 06:10:49;;;;;;;9.18;5.32;;;6.20;80.00;;;;;;5093345;28;20031;-64
2021/01/27 06:13:30;;;;;;;8.38;4.60;;;6.20;79.90;;;;;;5092287;28;20075;-63
2021/01/27 06:15:56;;;;;;;8.40;5.18;;;6.20;79.80;;;;;;5093163;28;20491;-64
2021/01/27 06:18:25;;;;;;;11.85;5.30;;;6.20;79.70;;;;;;5092879;28;20028;-65
2021/01/27 06:21:26;;;;;;;10.07;3.92;;;6.30;79.60;;;;;;5092504;28;20020;-64
2021/01/27 06:24:10;;;;;;;7.20;4.40;;;6.30;79.50;;;;;;5060713;28;20123;-67
2021/01/27 06:26:42;;;;;;;;;;;6.30;79.30;;;;;;5092364;28;20043;-76
2021/01/27 06:29:42;;;;;;;9.50;5.38;;;6.30;80.00;;;;;;5100327;28;19930;-67
2021/01/27 06:32:20;;;;;;;8.93;4.72;;;6.30;78.90;;;;;;5051436;28;20059;-64
2021/01/27 06:35:06;;;;;;;6.63;3.45;;;6.40;78.80;;;;;;5094593;28;20443;-64
2021/01/27 06:38:09;;;;;;;10.25;4.95;;;6.30;78.80;;;;;;5097132;28;20035;-65
2021/01/27 06:41:05;;;;;;;7.85;4.70;;;6.40;78.80;;;;;;5097515;28;20138;-65
2021/01/27 06:43:49;;;;;;;6.65;4.18;;;6.40;78.70;;;;;;5096586;28;20032;-64
2021/01/27 06:46:46;;;;;;;6.72;3.95;;;6.40;78.70;;;;;;5096052;28;20070;-64
2021/01/27 06:49:46;;;;;;;9.43;4.13;;;6.40;78.80;;;;;;5098065;28;20028;-64
2021/01/27 06:52:39;;;;;;;9.52;5.47;;;6.40;78.70;;;;;;5098950;28;20031;-64
2021/01/27 06:55:17;;;;;;;9.85;5.50;;;6.30;78.40;;;;;;5097840;28;20434;-68
2021/01/27 06:58:31;;;;;;;9.93;6.15;;;6.30;78.40;;;;;;5095873;28;20035;-64
2021/01/27 07:01:25;;;;;;;6.70;4.43;;;6.30;78.50;;;;;;5097146;28;20047;-65
2021/01/27 07:04:05;;;;;;;9.82;5.00;;;6.30;78.50;;;;;;5091234;28;20066;-65
2021/01/27 07:06:46;;;;;;;9.48;5.30;;;6.30;78.40;;;;;;5091046;28;20040;-63
2021/01/27 07:09:36;;;;;;;9.75;5.15;;;6.30;79.10;;;;;;5089535;28;20040;-64
2021/01/27 07:12:19;;;;;;;9.30;5.05;;;6.30;78.60;;;;;;5090316;28;20033;-64
2021/01/27 07:14:55;;;;;;;11.13;6.27;;;6.30;78.60;;;;;;5090526;28;20025;-65
2021/01/27 07:17:52;;;;;;;8.80;5.40;;;6.30;78.60;;;;;;5096959;28;20028;-64
2021/01/27 07:20:25;;;;;;;12.15;7.13;;;6.20;78.40;;;;;;5097144;28;20024;-64
2021/01/27 07:22:58;;;;;;;16.83;7.30;;;6.20;78.60;;;;;;5093666;28;20032;-66
2021/01/27 07:25:42;;;;;;;8.80;5.53;;;6.20;78.60;;;;;;5098584;28;20116;-64
2021/01/27 07:28:12;;;;;;;;;;;6.20;78.60;;;;;;5096811;28;20479;-65
2021/01/27 07:30:50;;;;;;;7.85;4.72;;;6.20;78.70;;;;;;5095416;28;19923;-65
2021/01/27 07:33:22;;;;;;;9.80;5.05;;;6.20;78.50;;;;;;5094042;28;20024;-64
2021/01/27 07:36:01;;;;;;;8.73;5.63;;;6.20;78.60;;;;;;5102141;28;20020;-64
2021/01/27 07:38:32;;;;;;;8.80;5.82;;;6.20;78.60;;;;;;5092417;28;20046;-64
2021/01/27 07:40:59;;;;;;;10.15;6.00;;;6.20;78.50;;;;;;5093405;28;20518;-65
2021/01/27 07:43:49;;;;;;;11.68;6.30;;;6.10;79.00;;;;;;5096771;28;20470;-64
2021/01/27 07:46:18;;;;;;;8.70;6.03;;;6.10;78.10;;;;;;5094104;28;20028;-64
2021/01/27 07:48:52;;;;;;;8.45;6.05;;;6.10;78.00;;;;;;5094007;28;20441;-65
2021/01/27 07:51:23;;;;;;;9.60;5.88;;;6.10;77.90;;;;;;5096792;28;20090;-64
2021/01/27 07:54:18;;;;;;;10.73;6.40;;;6.10;78.00;;;;;;5101622;28;20123;-80
2021/01/27 07:56:58;;;;;;;12.82;7.50;;;6.10;78.00;;;;;;5106315;28;20020;-64
2021/01/27 07:59:39;;;;;;;11.93;7.03;;;6.10;78.10;;;;;;5098933;28;20031;-64
2021/01/27 08:02:11;;;;;;;15.38;6.47;;;6.00;78.10;;;;;;5098223;28;20040;-64
2021/01/27 08:04:43;;;;;;;9.65;5.80;;;6.00;78.10;;;;;;5097463;28;20119;-64
2021/01/27 08:07:17;;;;;;;6.35;3.70;;;6.00;78.20;;;;;;5105409;28;20020;-64
2021/01/27 08:09:44;;;;;;;7.50;4.50;;;5.90;78.30;;;;;;5106804;28;20070;-64
2021/01/27 08:12:28;;;;;;;9.00;4.45;;;6.00;78.40;;;;;;5102327;28;20047;-64
2021/01/27 08:15:12;;;;;;;8.15;3.92;;;5.90;78.40;;;;;;5106109;28;20048;-64
2021/01/27 08:17:44;;;;;;;;;;;6.00;78.60;;;;;;5114920;28;20072;-64
2021/01/27 08:20:24;;;;;;;6.65;4.43;;;6.00;78.80;;;;;;5097067;28;19908;-64
2021/01/27 08:23:02;;;;;;;7.25;3.95;;;6.00;78.60;;;;;;5107755;28;20472;-64
2021/01/27 08:25:51;;;;;;;7.82;3.75;;;6.00;78.90;;;;;;5105481;28;20016;-64
2021/01/27 08:28:24;;;;;;;7.22;4.00;;;5.90;78.90;;;;;;5110197;28;20032;-65
2021/01/27 08:31:08;;;;;;;6.68;4.03;;;5.90;79.00;;;;;;5106841;28;20051;-64
2021/01/27 08:33:46;;;;;;;4.00;2.70;;;6.00;79.20;;;;;;5098139;28;20035;-64
2021/01/27 08:36:18;;;;;;;5.63;3.75;;;6.00;79.10;;;;;;5094460;28;20374;-62
2021/01/27 08:39:09;;;;;;;5.72;4.05;;;5.90;79.10;;;;;;5106633;28;20031;-64
2021/01/27 08:41:52;;;;;;;3.55;2.22;;;6.00;79.20;;;;;;5093315;28;20050;-64
2021/01/27 08:44:21;;;;;;;7.37;3.47;;;6.00;79.10;;;;;;5093997;28;20036;-64
2021/01/27 08:47:00;;;;;;;2.78;2.28;;;6.00;79.10;;;;;;5093797;28;20028;-64
2021/01/27 08:49:47;;;;;;;5.13;2.22;;;6.00;79.10;;;;;;5100516;28;20036;-63
2021/01/27 08:52:12;;;;;;;2.75;2.20;;;6.00;79.10;;;;;;5094054;28;20043;-63
2021/01/27 08:54:41;;;;;;;2.85;2.42;;;6.00;79.00;;;;;;5092734;28;20027;-63
2021/01/27 08:57:22;;;;;;;4.40;2.90;;;6.00;79.00;;;;;;5093185;28;20028;-63
2021/01/27 09:00:05;;;;;;;2.42;1.80;;;6.00;79.00;;;;;;5092935;28;20040;-65
2021/01/27 09:02:45;;;;;;;2.95;2.10;;;6.00;79.00;;;;;;5093016;28;20103;-64
2021/01/27 09:05:20;;;;;;;2.65;2.10;;;6.00;78.90;;;;;;5093557;28;20040;-64
2021/01/27 09:07:57;;;;;;;4.72;2.85;;;6.00;78.80;;;;;;5093625;28;20086;-65
2021/01/27 09:10:35;;;;;;;3.25;1.88;;;6.00;78.70;;;;;;5093158;28;20040;-66
2021/01/27 09:13:38;;;;;;;3.90;1.95;;;6.00;78.90;;;;;;5092832;28;20036;-66
2021/01/27 09:16:16;;;;;;;5.00;2.60;;;6.00;79.00;;;;;;5092342;28;20486;-65
2021/01/27 09:18:43;;;;;;;4.35;2.53;;;6.00;78.90;;;;;;5097514;28;20379;-64
2021/01/27 09:21:16;;;;;;;3.80;2.25;;;6.00;79.00;;;;;;5111810;28;20034;-64
2021/01/27 09:23:44;;;;;;;6.65;2.08;;;6.00;79.00;;;;;;5093429;28;20042;-64
2021/01/27 09:26:21;;;;;;;3.28;2.38;;;6.00;78.80;;;;;;5093340;28;20036;-64
2021/01/27 09:28:48;;;;;;;2.53;1.60;;;6.00;78.80;;;;;;5108424;28;20035;-64
2021/01/27 09:31:22;;;;;;;5.72;3.05;;;6.00;78.80;;;;;;5111060;28;20115;-64
2021/01/27 09:33:48;;;;;;;2.25;1.48;;;6.00;78.90;;;;;;5107790;28;20031;-64
2021/01/27 09:36:25;;;;;;;2.05;1.83;;;6.00;78.90;;;;;;5099738;28;20027;-65
2021/01/27 09:38:55;;;;;;;2.10;1.45;;;6.00;79.00;;;;;;5102151;28;20043;-65
2021/01/27 09:41:30;;;;;;;2.42;1.73;;;6.00;79.50;;;;;;5092620;28;20024;-64
2021/01/27 09:43:56;;;;;;;3.08;2.47;;;6.00;79.00;;;;;;5099017;28;20028;-65
2021/01/27 09:46:36;;;;;;;5.05;2.63;;;6.00;78.90;;;;;;5093048;28;20055;-64
2021/01/27 09:49:06;;;;;;;2.47;1.75;;;6.00;79.00;;;;;;5096402;28;20036;-65
2021/01/27 09:51:32;;;;;;;3.70;1.90;;;6.00;79.00;;;;;;5092162;28;20081;-64
2021/01/27 09:54:00;;;;;;;2.22;1.80;;;6.10;79.00;;;;;;5093594;28;20024;-64
2021/01/27 09:56:28;;;;;;;1.52;1.42;;;6.10;78.90;;;;;;5092735;28;20024;-64
2021/01/27 09:58:55;;;;;;;2.47;1.95;;;6.10;78.90;;;;;;5097529;28;20047;-64
2021/01/27 10:01:24;;;;;;;4.22;2.05;;;6.10;78.80;;;;;;5095278;28;20024;-64
2021/01/27 10:04:05;;;;;;;1.23;1.13;;;6.10;78.80;;;;;;5094103;28;20114;-64
2021/01/27 10:06:51;;;;;;;4.43;2.53;;;6.10;78.80;;;;;;5093793;28;20123;-64
2021/01/27 10:09:29;;;;;;;3.35;2.17;;;6.20;78.80;;;;;;5097123;28;20032;-66
2021/01/27 10:12:03;;;;;;;2.60;2.10;;;6.20;78.70;;;;;;5091428;28;20123;-67
2021/01/27 10:14:32;;;;;;;3.38;2.55;;;6.20;78.60;;;;;;5092377;28;20059;-67
2021/01/27 10:17:03;;;;;;;3.05;1.98;;;6.20;78.60;;;;;;5091759;28;20479;-65
2021/01/27 10:19:32;;;;;;;4.07;2.35;;;6.20;78.60;;;;;;5091549;28;20545;-64
2021/01/27 10:22:00;;;;;;;3.67;1.65;;;6.20;78.60;;;;;;5091478;28;20016;-65
2021/01/27 10:24:59;;;;;;;2.92;1.80;;;6.20;78.40;;;;;;5094306;28;20028;-65
2021/01/27 10:27:31;;;;;;;3.50;2.45;;;6.10;78.50;;;;;;5091564;28;20031;-65
2021/01/27 10:29:58;;;;;;;3.80;2.10;;;6.10;78.50;;;;;;5091451;28;20042;-65
2021/01/27 10:32:37;;;;;;;1.42;1.30;;;6.10;78.50;;;;;;5091688;28;20548;-64
2021/01/27 10:35:23;;;;;;;1.50;1.40;;;6.10;79.10;;;;;;5091509;28;20023;-65
2021/01/27 10:37:50;;;;;;;2.90;2.00;;;6.10;78.60;;;;;;5091845;28;20020;-66
2021/01/27 10:40:27;;;;;;;1.77;1.17;;;6.10;78.60;;;;;;5102183;28;20089;-64
2021/01/27 10:42:57;;;;;;;2.90;2.20;;;6.10;78.70;;;;;;5091614;28;20056;-64
2021/01/27 10:45:35;;;;;;;1.60;1.50;;;6.10;78.60;;;;;;5091847;28;20425;-63
2021/01/27 10:48:04;;;;;;;1.05;0.88;;;6.10;78.70;;;;;;5100354;28;20035;-66
2021/01/27 10:50:31;;;;;;;2.83;1.67;;;6.20;78.70;;;;;;5091082;28;20040;-68
2021/01/27 10:52:58;;;;;;;2.55;2.00;;;6.10;78.80;;;;;;5090968;28;20024;-67
2021/01/27 10:55:35;;;;;;;3.40;2.28;;;6.10;78.90;;;;;;5098277;28;20028;-67
2021/01/27 10:58:09;;;;;;;2.28;1.35;;;6.10;79.30;;;;;;5089359;28;20028;-67
2021/01/27 11:00:36;;;;;;;2.83;2.40;;;6.00;79.10;;;;;;5098299;28;20383;-67
2021/01/27 11:03:03;;;;;;;2.20;1.77;;;6.00;79.30;;;;;;5092393;28;20436;-72
2021/01/27 11:05:29;;;;;;;3.38;2.22;;;6.00;79.30;;;;;;5098313;28;20109;-71
2021/01/27 11:07:55;;;;;;;3.63;2.38;;;6.00;79.40;;;;;;5100103;28;20032;-68
2021/01/27 11:10:22;;;;;;;2.45;1.27;;;6.00;79.40;;;;;;5085887;28;20515;-67
2021/01/27 11:12:48;;;;;;;2.70;1.75;;;6.00;79.50;;;;;;5091350;28;20080;-68
2021/01/27 11:15:14;;;;;;;5.10;2.42;;;6.00;79.40;;;;;;5102154;28;20032;-68
2021/01/27 11:17:39;;;;;;;3.22;2.35;;;6.00;79.40;;;;;;5096321;28;20020;-68
2021/01/27 11:20:06;;;;;;;2.03;1.40;;;6.10;79.50;;;;;;5097005;28;20527;-68
2021/01/27 11:22:32;;;;;;;3.72;2.00;;;6.10;79.50;;;;;;5098098;28;20041;-67
2021/01/27 11:24:58;;;;;;;2.25;1.98;;;6.10;79.50;;;;;;5099039;28;20035;-67
2021/01/27 11:27:24;;;;;;;4.07;2.38;;;6.10;79.50;;;;;;5105443;28;20030;-68
2021/01/27 11:29:49;;;;;;;3.03;2.25;;;6.20;79.40;;;;;;5090303;28;20035;-67
2021/01/27 11:32:15;;;;;;;1.40;1.20;;;6.10;79.40;;;;;;5091271;28;20479;-69
2021/01/27 11:34:41;;;;;;;2.55;1.75;;;6.10;79.50;;;;;;5094644;28;20077;-67
2021/01/27 11:37:08;;;;;;;2.22;1.70;;;6.10;79.50;;;;;;5097136;28;20458;-68
2021/01/27 11:39:34;;;;;;;2.70;2.03;;;6.10;79.50;;;;;;5091572;28;20028;-68
2021/01/27 11:42:00;;;;;;;2.63;1.95;;;6.10;79.70;;;;;;5091171;28;20055;-70
2021/01/27 11:44:25;;;;;;;3.47;2.33;;;6.10;79.70;;;;;;5090572;28;20032;-70
2021/01/27 11:46:51;;;;;;;2.38;1.50;;;6.10;79.70;;;;;;5091425;28;20024;-68
2021/01/27 11:49:17;;;;;;;3.10;2.13;;;6.10;79.70;;;;;;5100786;28;20048;-68
2021/01/27 11:51:43;;;;;;;3.72;2.58;;;6.10;79.80;;;;;;5090788;28;20039;-67
2021/01/27 11:54:09;;;;;;;3.40;2.60;;;6.10;79.80;;;;;;5100742;28;20123;-67
2021/01/27 11:56:34;;;;;;;1.60;1.48;;;6.10;79.90;;;;;;5096933;28;20016;-67
2021/01/27 11:59:00;;;;;;;1.40;1.30;;;6.10;79.90;;;;;;5106771;28;20122;-72
2021/01/27 12:01:29;;;;;;;1.95;1.52;;;6.10;79.90;;;;;;5109587;28;20019;-68
2021/01/27 12:03:55;;;;;;;6.55;2.28;;;6.10;79.90;;;;;;5103253;28;20032;-67
2021/01/27 12:06:21;;;;;;;3.08;2.00;;;6.10;79.90;;;;;;5112174;28;20027;-75
2021/01/27 12:08:47;;;;;;;2.42;1.67;;;6.10;80.00;;;;;;5102533;28;20036;-67
2021/01/27 12:11:13;;;;;;;1.13;1.02;;;6.10;80.00;;;;;;5111367;28;20028;-66
2021/01/27 12:13:38;;;;;;;3.67;2.42;;;6.20;80.10;;;;;;5111949;28;20027;-67
2021/01/27 12:16:04;;;;;;;2.40;1.98;;;6.20;80.00;;;;;;5113888;28;20020;-67
2021/01/27 12:18:30;;;;;;;4.60;3.58;;;6.10;80.00;;;;;;5108263;28;20027;-66
2021/01/27 12:20:56;;;;;;;4.05;2.67;;;6.20;80.10;;;;;;5103842;28;20600;-70
2021/01/27 12:23:21;;;;;;;2.17;1.95;;;6.20;80.00;;;;;;5112147;28;20027;-68
2021/01/27 12:25:47;;;;;;;7.68;3.22;;;6.20;80.00;;;;;;5109488;28;20028;-67
2021/01/27 12:28:13;;;;;;;2.20;1.70;;;6.30;80.00;;;;;;5112712;28;20073;-68
2021/01/27 12:30:40;;;;;;;3.50;2.33;;;6.30;80.00;;;;;;5107243;28;20130;-68
2021/01/27 12:33:07;;;;;;;2.90;2.00;;;6.30;79.80;;;;;;5096232;28;20035;-68
2021/01/27 12:35:33;;;;;;;3.45;2.30;;;6.40;79.80;;;;;;5106682;28;20398;-67
2021/01/27 12:37:59;;;;;;;5.05;2.58;;;6.30;79.80;;;;;;5094100;28;20028;-68
2021/01/27 12:40:25;;;;;;;1.65;1.20;;;6.40;79.80;;;;;;5093416;28;20024;-67
2021/01/27 12:42:51;;;;;;;3.22;2.35;;;6.40;79.80;;;;;;5093620;28;20031;-68
2021/01/27 12:45:21;;;;;;;4.50;3.03;;;6.40;79.70;;;;;;5094490;28;20115;-68
2021/01/27 12:47:46;;;;;;;3.95;3.05;;;6.50;79.70;;;;;;5098446;28;20383;-67
2021/01/27 12:50:13;;;;;;;5.78;3.13;;;6.50;79.70;;;;;;5108018;28;20038;-67
2021/01/27 12:52:39;;;;;;;4.63;3.05;;;6.60;79.70;;;;;;5093630;28;20436;-68
2021/01/27 12:55:11;;;;;;;7.10;3.00;;;6.50;79.60;;;;;;5100201;28;20032;-73
2021/01/27 12:57:41;;;;;;;3.67;2.30;;;6.60;79.60;;;;;;5112362;28;20485;-75
2021/01/27 13:00:09;;;;;;;4.53;2.92;;;6.60;79.40;;;;;;5105903;28;20034;-68
2021/01/27 13:02:35;;;;;;;8.73;3.55;;;6.60;79.40;;;;;;5107835;28;20054;-66
2021/01/27 13:05:01;;;;;;;5.63;3.35;;;6.70;79.50;;;;;;5094148;28;20052;-67
2021/01/27 13:07:26;;;;;;;5.32;3.30;;;6.70;79.30;;;;;;5092915;28;20596;-69
2021/01/27 13:09:52;;;;;;;5.25;3.15;;;6.70;79.20;;;;;;5095094;28;20082;-67
2021/01/27 13:12:18;;;;;;;2.50;1.48;;;6.80;79.30;;;;;;5106142;28;20028;-67
2021/01/27 13:14:43;;;;;;;5.60;2.88;;;6.80;79.20;;;;;;5107257;28;20375;-68
2021/01/27 13:17:09;;;;;;;5.07;3.53;;;6.80;79.00;;;;;;5104082;28;20096;-68
2021/01/27 13:19:35;;;;;;;4.38;3.33;;;6.80;79.10;;;;;;5093374;28;20057;-67
2021/01/27 13:22:00;;;;;;;6.10;3.50;;;6.80;79.20;;;;;;5091979;28;20077;-68
2021/01/27 13:24:26;;;;;;;4.80;2.85;;;6.80;79.30;;;;;;5093213;28;20028;-68
2021/01/27 13:26:52;;;;;;;5.10;3.03;;;6.80;79.10;;;;;;5092802;28;20073;-68
2021/01/27 13:29:17;;;;;;;4.30;3.15;;;6.80;79.10;;;;;;5108072;28;20106;-68